createdAt,value
2019-02-23T00:01:33.042Z,99.90
2019-02-23T00:04:02.169Z,99.90
2019-02-23T00:06:30.537Z,99.90
2019-02-23T00:08:59.133Z,99.90
2019-02-23T00:11:27.440Z,99.90
2019-02-23T00:13:55.460Z,99.90
2019-02-23T00:16:23.464Z,99.90
2019-02-23T00:18:53.631Z,99.90
2019-02-23T00:21:22.252Z,99.90
2019-02-23T00:23:50.854Z,99.90
2019-02-23T00:26:18.792Z,99.90
2019-02-23T00:28:47.574Z,99.90
2019-02-23T00:31:16.476Z,99.90
2019-02-23T00:33:45.151Z,99.90
2019-02-23T00:36:13.440Z,99.90
2019-02-23T00:38:41.409Z,99.90
2019-02-23T00:41:09.322Z,99.90
2019-02-23T00:43:37.226Z,99.90
2019-02-23T00:46:05.211Z,99.90
2019-02-23T00:48:33.665Z,99.90
2019-02-23T00:51:02.355Z,99.90
2019-02-23T00:53:31.018Z,99.90
2019-02-23T00:55:59.069Z,99.90
2019-02-23T00:58:27.280Z,99.90
2019-02-23T01:00:56.520Z,99.90
2019-02-23T01:03:24.869Z,99.90
2019-02-23T01:05:53.129Z,99.90
2019-02-23T01:08:21.931Z,99.90
2019-02-23T01:10:57.838Z,99.90
2019-02-23T01:13:20.661Z,99.90
2019-02-23T01:15:49.217Z,99.90
2019-02-23T01:18:17.607Z,99.90
2019-02-23T01:20:46.096Z,99.90
2019-02-23T01:23:14.310Z,99.90
2019-02-23T01:25:42.192Z,99.90
2019-02-23T01:28:10.819Z,99.90
2019-02-23T01:30:39.213Z,99.90
2019-02-23T01:33:07.839Z,99.90
2019-02-23T01:35:35.772Z,99.90
2019-02-23T01:38:04.448Z,99.90
2019-02-23T01:40:32.448Z,99.90
2019-02-23T01:43:00.453Z,99.90
2019-02-23T01:45:28.432Z,99.90
2019-02-23T01:47:56.971Z,99.90
2019-02-23T01:50:25.447Z,99.90
2019-02-23T01:52:53.428Z,99.90
2019-02-23T01:55:21.886Z,99.90
2019-02-23T01:57:50.085Z,99.90
2019-02-23T02:00:19.121Z,99.90
2019-02-23T02:02:48.130Z,99.90
2019-02-23T02:05:16.403Z,99.90
2019-02-23T02:07:44.665Z,99.90
2019-02-23T02:10:13.567Z,99.90
2019-02-23T02:12:42.479Z,99.90
2019-02-23T02:15:13.163Z,99.90
2019-02-23T02:17:41.765Z,99.90
2019-02-23T02:20:11.338Z,99.90
2019-02-23T02:22:39.781Z,99.90
2019-02-23T02:25:08.317Z,99.90
2019-02-23T02:27:36.967Z,99.90
2019-02-23T02:30:14.065Z,99.90
2019-02-23T02:32:42.129Z,99.90
2019-02-23T02:35:10.718Z,99.90
2019-02-23T02:37:38.767Z,99.90
2019-02-23T02:40:07.868Z,99.90
2019-02-23T02:42:36.725Z,99.90
2019-02-23T02:45:06.345Z,99.90
2019-02-23T02:47:34.451Z,99.90
2019-02-23T02:50:02.987Z,99.90
2019-02-23T02:52:30.929Z,99.90
2019-02-23T02:54:59.703Z,99.90
2019-02-23T02:57:28.028Z,99.90
2019-02-23T02:59:56.687Z,99.90
2019-02-23T03:02:24.724Z,99.90
2019-02-23T03:04:53.472Z,99.90
2019-02-23T03:07:22.787Z,99.90
2019-02-23T03:09:50.810Z,99.90
2019-02-23T03:12:19.611Z,99.90
2019-02-23T03:14:47.675Z,99.90
2019-02-23T03:17:16.082Z,99.90
2019-02-23T03:19:44.153Z,99.90
2019-02-23T03:22:15.954Z,99.90
2019-02-23T03:24:44.547Z,99.90
2019-02-23T03:27:13.185Z,99.90
2019-02-23T03:29:41.460Z,99.90
2019-02-23T03:32:12.359Z,99.90
2019-02-23T03:34:40.760Z,99.90
2019-02-23T03:37:09.480Z,99.90
2019-02-23T03:39:38.354Z,99.90
2019-02-23T03:42:06.640Z,99.90
2019-02-23T03:44:34.612Z,99.90
2019-02-23T03:47:02.918Z,99.90
2019-02-23T03:49:31.143Z,99.90
2019-02-23T03:51:59.148Z,99.90
2019-02-23T03:54:27.758Z,99.90
2019-02-23T03:56:57.328Z,99.90
2019-02-23T03:59:25.779Z,99.90
2019-02-23T04:01:54.347Z,99.90
2019-02-23T04:04:22.777Z,99.90
2019-02-23T04:06:51.431Z,99.90
2019-02-23T04:09:19.403Z,99.90
2019-02-23T04:11:48.078Z,99.90
2019-02-23T04:14:16.852Z,99.90
2019-02-23T04:16:45.212Z,99.90
2019-02-23T04:19:13.489Z,99.90
2019-02-23T04:21:41.966Z,99.90
2019-02-23T04:24:10.301Z,99.90
2019-02-23T04:26:38.226Z,99.90
2019-02-23T04:29:06.384Z,99.90
2019-02-23T04:31:34.766Z,99.90
2019-02-23T04:34:03.302Z,99.90
2019-02-23T04:36:32.279Z,99.90
2019-02-23T04:39:00.538Z,99.90
2019-02-23T04:41:29.244Z,99.90
2019-02-23T04:43:57.589Z,99.90
2019-02-23T04:46:25.590Z,99.90
2019-02-23T04:48:53.584Z,99.90
2019-02-23T04:51:21.846Z,99.90
2019-02-23T04:53:49.762Z,99.90
2019-02-23T04:56:18.086Z,99.90
2019-02-23T04:58:46.257Z,99.90
2019-02-23T05:01:14.880Z,99.90
2019-02-23T05:03:43.294Z,99.90
2019-02-23T05:06:11.392Z,99.90
2019-02-23T05:08:39.732Z,99.90
2019-02-23T05:11:08.044Z,99.90
2019-02-23T05:13:38.500Z,99.90
2019-02-23T05:16:10.018Z,99.90
2019-02-23T05:18:38.662Z,99.90
2019-02-23T05:21:07.155Z,99.90
2019-02-23T05:23:36.444Z,99.90
2019-02-23T05:26:04.641Z,99.90
2019-02-23T05:28:32.989Z,99.90
2019-02-23T05:31:01.325Z,99.90
2019-02-23T05:33:29.562Z,99.90
2019-02-23T05:35:57.605Z,99.90
2019-02-23T05:38:25.383Z,99.90
2019-02-23T05:40:53.953Z,99.90
2019-02-23T05:43:22.094Z,99.90
2019-02-23T05:45:53.057Z,99.90
2019-02-23T05:48:21.306Z,99.90
2019-02-23T05:50:49.547Z,99.90
2019-02-23T05:53:17.816Z,99.90
2019-02-23T05:55:45.816Z,99.90
2019-02-23T05:58:14.412Z,99.90
2019-02-23T06:00:53.021Z,99.90
2019-02-23T06:03:22.107Z,99.90
2019-02-23T06:05:51.984Z,99.90
2019-02-23T06:08:22.338Z,99.90
2019-02-23T06:10:52.215Z,99.90
2019-02-23T06:13:21.849Z,99.90
2019-02-23T06:15:50.879Z,99.90
2019-02-23T06:18:19.126Z,99.90
2019-02-23T06:20:50.868Z,99.90
2019-02-23T06:23:19.052Z,99.90
2019-02-23T06:26:03.869Z,99.90
2019-02-23T06:28:31.499Z,99.90
2019-02-23T06:30:59.142Z,99.90
2019-02-23T06:33:27.432Z,99.90
2019-02-23T06:35:55.359Z,99.90
2019-02-23T06:38:23.148Z,99.90
2019-02-23T06:40:50.576Z,99.90
2019-02-23T06:43:18.706Z,99.90
2019-02-23T06:45:48.203Z,99.90
2019-02-23T06:48:16.199Z,99.90
2019-02-23T06:50:43.898Z,99.90
2019-02-23T06:53:11.597Z,99.90
2019-02-23T06:55:39.633Z,99.90
2019-02-23T06:58:08.016Z,99.90
2019-02-23T07:00:35.988Z,99.90
2019-02-23T07:03:07.791Z,99.90
2019-02-23T07:05:34.963Z,99.90
2019-02-23T07:08:02.173Z,99.90
2019-02-23T07:10:29.815Z,99.90
2019-02-23T07:12:57.367Z,99.90
2019-02-23T07:15:24.979Z,99.90
2019-02-23T07:17:52.485Z,99.90
2019-02-23T07:20:21.946Z,99.90
2019-02-23T07:22:49.080Z,99.90
2019-02-23T07:25:16.777Z,99.90
2019-02-23T07:27:45.105Z,99.90
2019-02-23T07:30:12.663Z,99.90
2019-02-23T07:32:40.998Z,99.90
2019-02-23T07:35:08.986Z,99.90
2019-02-23T07:37:36.712Z,99.90
2019-02-23T07:40:04.718Z,99.90
2019-02-23T07:42:32.764Z,99.90
2019-02-23T07:45:00.325Z,99.90
2019-02-23T07:47:28.069Z,99.90
2019-02-23T07:49:56.296Z,99.90
2019-02-23T07:52:26.627Z,99.90
2019-02-23T07:54:53.727Z,99.90
2019-02-23T07:57:21.668Z,99.90
2019-02-23T07:59:49.214Z,99.90
2019-02-23T08:02:16.810Z,99.90
2019-02-23T08:04:44.086Z,99.90
2019-02-23T08:07:11.858Z,99.90
2019-02-23T08:09:39.398Z,99.90
2019-02-23T08:12:07.187Z,99.90
2019-02-23T08:14:34.704Z,99.90
2019-02-23T08:17:02.557Z,99.90
2019-02-23T08:19:30.287Z,99.90
2019-02-23T08:21:57.976Z,99.90
2019-02-23T08:24:25.256Z,99.90
2019-02-23T08:26:52.865Z,99.90
2019-02-23T08:29:20.390Z,99.90
2019-02-23T08:31:47.692Z,99.90
2019-02-23T08:34:15.497Z,99.90
2019-02-23T08:36:42.815Z,99.90
2019-02-23T08:39:10.100Z,99.90
2019-02-23T08:41:38.279Z,99.90
2019-02-23T08:44:05.980Z,99.90
2019-02-23T08:46:33.774Z,99.90
2019-02-23T08:49:01.199Z,99.90
2019-02-23T08:51:28.321Z,99.90
2019-02-23T08:53:55.760Z,99.90
2019-02-23T08:56:23.698Z,99.90
2019-02-23T08:58:51.102Z,99.90
2019-02-23T09:01:18.828Z,99.90
2019-02-23T09:03:46.592Z,99.90
2019-02-23T09:06:14.154Z,99.90
2019-02-23T09:08:41.569Z,99.90
2019-02-23T09:11:09.215Z,99.90
2019-02-23T09:13:36.623Z,99.90
2019-02-23T09:16:04.163Z,99.90
2019-02-23T09:18:31.765Z,99.90
2019-02-23T09:20:59.637Z,99.90
2019-02-23T09:23:27.711Z,99.90
2019-02-23T09:25:57.813Z,99.90
2019-02-23T09:28:25.400Z,99.90
2019-02-23T09:30:52.706Z,99.90
2019-02-23T09:33:20.369Z,99.90
2019-02-23T09:35:47.660Z,99.90
2019-02-23T09:38:14.788Z,99.90
2019-02-23T09:40:42.708Z,99.90
2019-02-23T09:43:10.565Z,99.90
2019-02-23T09:45:37.805Z,99.90
2019-02-23T09:48:05.403Z,99.90
2019-02-23T09:50:32.651Z,99.90
2019-02-23T09:53:10.450Z,99.90
2019-02-23T09:55:30.259Z,99.90
2019-02-23T09:57:58.054Z,99.90
2019-02-23T10:00:25.977Z,99.90
2019-02-23T10:02:53.533Z,99.90
2019-02-23T10:05:20.810Z,99.90
2019-02-23T10:07:48.238Z,99.90
2019-02-23T10:10:16.232Z,99.90
2019-02-23T10:12:43.744Z,99.90
2019-02-23T10:15:12.810Z,99.90
2019-02-23T10:17:40.076Z,99.90
2019-02-23T10:20:08.074Z,99.90
2019-02-23T10:22:35.658Z,99.90
2019-02-23T10:25:03.503Z,99.90
2019-02-23T10:27:30.730Z,99.90
2019-02-23T10:29:58.673Z,99.90
2019-02-23T10:32:26.641Z,99.90
2019-02-23T10:34:54.647Z,99.90
2019-02-23T10:37:22.480Z,99.90
2019-02-23T10:39:49.983Z,99.90
2019-02-23T10:42:17.923Z,99.90
2019-02-23T10:44:46.406Z,99.90
2019-02-23T10:47:14.732Z,99.90
2019-02-23T10:49:42.127Z,99.90
2019-02-23T10:52:09.899Z,99.90
2019-02-23T10:54:37.683Z,99.90
2019-02-23T10:57:05.193Z,99.60
2019-02-23T10:59:32.930Z,99.60
2019-02-23T11:02:01.149Z,99.90
2019-02-23T11:04:33.056Z,98.30
2019-02-23T11:07:01.481Z,99.90
2019-02-23T11:09:35.080Z,94.80
2019-02-23T11:12:05.124Z,99.90
2019-02-23T11:14:32.528Z,92.10
2019-02-23T11:17:00.531Z,95.80
2019-02-23T11:19:28.822Z,94.40
2019-02-23T11:21:56.593Z,96.50
2019-02-23T11:24:24.167Z,92.00
2019-02-23T11:26:52.247Z,90.40
2019-02-23T11:29:20.901Z,92.00
2019-02-23T11:31:48.741Z,92.20
2019-02-23T11:34:16.469Z,89.60
2019-02-23T11:36:43.835Z,90.40
2019-02-23T11:39:11.649Z,92.50
2019-02-23T11:41:39.326Z,90.60
2019-02-23T11:44:07.064Z,80.00
2019-02-23T11:46:34.872Z,83.50
2019-02-23T11:49:02.171Z,81.90
2019-02-23T11:51:29.547Z,82.10
2019-02-23T11:53:57.155Z,78.90
2019-02-23T11:56:24.674Z,82.50
2019-02-23T11:58:52.166Z,74.20
2019-02-23T12:01:19.638Z,75.30
2019-02-23T12:03:47.257Z,88.50
2019-02-23T12:06:14.792Z,74.10
2019-02-23T12:08:42.437Z,88.10
2019-02-23T12:11:10.471Z,65.10
2019-02-23T12:13:37.941Z,66.30
2019-02-23T12:16:05.761Z,70.20
2019-02-23T12:18:33.353Z,64.50
2019-02-23T12:21:01.459Z,65.70
2019-02-23T12:23:29.328Z,76.90
2019-02-23T12:25:57.439Z,65.10
2019-02-23T12:28:24.985Z,77.50
2019-02-23T12:30:52.640Z,80.20
2019-02-23T12:33:19.840Z,80.20
2019-02-23T12:35:47.332Z,68.90
2019-02-23T12:38:17.802Z,68.20
2019-02-23T12:40:45.464Z,92.80
2019-02-23T12:43:12.587Z,68.70
2019-02-23T12:45:40.035Z,89.70
2019-02-23T12:48:07.392Z,81.00
2019-02-23T12:50:34.669Z,68.40
2019-02-23T12:53:02.254Z,69.10
2019-02-23T12:55:29.833Z,68.80
2019-02-23T12:57:57.722Z,71.20
2019-02-23T13:00:25.139Z,78.70
2019-02-23T13:02:52.434Z,93.70
2019-02-23T13:05:20.258Z,78.40
2019-02-23T13:07:48.652Z,81.60
2019-02-23T13:10:16.265Z,81.10
2019-02-23T13:13:48.126Z,79.80
2019-02-23T13:17:00.893Z,91.00
2019-02-23T13:20:11.976Z,72.60
2019-02-23T13:23:22.882Z,72.50
2019-02-23T13:26:49.248Z,74.20
2019-02-23T13:30:09.035Z,72.20
2019-02-23T13:33:28.453Z,73.30
2019-02-23T13:37:15.235Z,71.00
2019-02-23T13:41:09.181Z,69.40
2019-02-23T13:44:22.956Z,73.20
2019-02-23T13:47:34.369Z,60.20
2019-02-23T13:50:43.703Z,61.00
2019-02-23T13:54:06.011Z,59.50
2019-02-23T13:57:11.931Z,64.50
2019-02-23T14:00:16.332Z,67.30
2019-02-23T14:03:45.578Z,66.30
2019-02-23T14:06:52.404Z,65.60
2019-02-23T14:10:17.806Z,56.80
2019-02-23T14:13:35.968Z,55.20
2019-02-23T14:16:52.522Z,58.50
2019-02-23T14:19:58.295Z,58.40
2019-02-23T14:23:17.198Z,58.20
2019-02-23T14:26:18.377Z,58.80
2019-02-23T14:29:53.444Z,65.00
2019-02-23T14:33:08.080Z,59.50
2019-02-23T14:36:21.649Z,62.40
2019-02-23T14:39:40.686Z,59.00
2019-02-23T14:42:59.826Z,58.10
2019-02-23T14:46:09.970Z,57.60
2019-02-23T14:49:23.783Z,58.90
2019-02-23T14:52:54.473Z,57.70
2019-02-23T14:55:46.113Z,65.80
2019-02-23T14:58:49.872Z,59.70
2019-02-23T15:02:14.554Z,56.00
2019-02-23T15:05:25.078Z,56.30
2019-02-23T15:08:39.430Z,56.90
2019-02-23T15:12:01.312Z,59.80
2019-02-23T15:15:03.298Z,60.60
2019-02-23T15:18:39.744Z,57.50
2019-02-23T15:21:24.674Z,61.00
2019-02-23T15:25:12.779Z,59.20
2019-02-23T15:28:47.967Z,61.60
2019-02-23T15:32:24.136Z,64.10
2019-02-23T15:35:25.654Z,61.70
2019-02-23T15:38:16.363Z,61.00
2019-02-23T15:41:05.356Z,62.30
2019-02-23T15:44:05.723Z,63.40
2019-02-23T15:47:16.743Z,65.20
2019-02-23T15:49:43.907Z,67.60
2019-02-23T15:52:11.348Z,72.60
2019-02-23T15:54:39.081Z,68.90
2019-02-23T15:57:06.638Z,71.10
2019-02-23T15:59:37.610Z,78.60
2019-02-23T16:02:05.519Z,76.80
2019-02-23T16:04:33.198Z,76.20
2019-02-23T16:07:01.506Z,75.90
2019-02-23T16:09:29.586Z,77.00
2019-02-23T16:11:57.008Z,86.00
2019-02-23T16:14:24.704Z,82.80
2019-02-23T16:16:52.333Z,87.60
2019-02-23T16:19:20.246Z,82.90
2019-02-23T16:21:48.222Z,81.10
2019-02-23T16:24:16.058Z,83.40
2019-02-23T16:26:44.137Z,81.80
2019-02-23T16:29:11.802Z,87.90
2019-02-23T16:31:39.658Z,83.30
2019-02-23T16:34:09.136Z,84.40
2019-02-23T16:36:36.632Z,84.30
2019-02-23T16:39:09.867Z,84.80
2019-02-23T16:41:37.860Z,85.00
2019-02-23T16:44:05.865Z,85.70
2019-02-23T16:46:34.419Z,86.90
2019-02-23T16:49:02.504Z,89.60
2019-02-23T16:51:30.333Z,90.20
2019-02-23T16:53:58.504Z,91.90
2019-02-23T16:56:25.885Z,91.50
2019-02-23T16:58:54.186Z,93.30
2019-02-23T17:01:21.774Z,90.00
2019-02-23T17:03:49.735Z,91.10
2019-02-23T17:06:17.767Z,91.70
2019-02-23T17:08:45.377Z,94.10
2019-02-23T17:11:12.801Z,94.00
2019-02-23T17:13:40.103Z,94.30
2019-02-23T17:16:07.353Z,94.80
2019-02-23T17:18:35.905Z,94.20
2019-02-23T17:21:03.551Z,93.90
2019-02-23T17:23:31.184Z,95.00
2019-02-23T17:26:04.134Z,96.00
2019-02-23T17:28:28.984Z,98.20
2019-02-23T17:30:56.816Z,96.10
2019-02-23T17:33:27.791Z,97.00
2019-02-23T17:35:53.878Z,97.20
2019-02-23T17:38:21.556Z,98.50
2019-02-23T17:40:49.417Z,98.80
2019-02-23T17:43:16.715Z,99.90
2019-02-23T17:45:45.104Z,99.80
2019-02-23T17:48:13.069Z,99.90
2019-02-23T17:50:40.317Z,99.90
2019-02-23T17:53:08.506Z,99.90
2019-02-23T17:55:36.115Z,99.90
2019-02-23T17:58:03.489Z,99.90
2019-02-23T18:00:30.848Z,99.90
2019-02-23T18:02:58.435Z,99.90
2019-02-23T18:05:26.619Z,99.90
2019-02-23T18:07:54.443Z,99.90
2019-02-23T18:10:22.237Z,99.90
2019-02-23T18:12:53.249Z,99.90
2019-02-23T18:15:26.319Z,99.90
2019-02-23T18:17:54.092Z,99.90
2019-02-23T18:20:22.148Z,99.90
2019-02-23T18:22:51.026Z,99.90
2019-02-23T18:25:21.450Z,99.90
2019-02-23T18:27:59.136Z,99.90
2019-02-23T18:30:31.267Z,99.90
2019-02-23T18:33:01.694Z,99.90
2019-02-23T18:35:29.300Z,99.90
2019-02-23T18:37:57.177Z,99.90
2019-02-23T18:40:25.911Z,99.90
2019-02-23T18:42:54.041Z,99.90
2019-02-23T18:45:21.561Z,99.90
2019-02-23T18:47:49.078Z,99.90
2019-02-23T18:50:22.149Z,99.90
2019-02-23T18:52:49.703Z,99.90
2019-02-23T18:55:20.782Z,99.90
2019-02-23T18:57:48.537Z,99.90
2019-02-23T19:00:24.001Z,99.90
2019-02-23T19:02:45.188Z,99.90
2019-02-23T19:05:12.645Z,99.90
2019-02-23T19:07:40.025Z,99.90
2019-02-23T19:10:09.915Z,99.90
2019-02-23T19:12:37.704Z,99.90
2019-02-23T19:15:07.040Z,99.90
2019-02-23T19:17:34.182Z,99.90
2019-02-23T19:20:01.595Z,99.90
2019-02-23T19:22:29.269Z,99.90
2019-02-23T19:24:56.825Z,99.90
2019-02-23T19:27:24.492Z,99.90
2019-02-23T19:29:52.237Z,99.90
2019-02-23T19:32:19.831Z,99.90
2019-02-23T19:34:47.240Z,99.90
2019-02-23T19:37:14.665Z,99.90
2019-02-23T19:39:42.246Z,99.90
2019-02-23T19:42:10.055Z,99.90
2019-02-23T19:44:37.496Z,99.90
2019-02-23T19:47:15.813Z,99.90
2019-02-23T19:49:43.215Z,99.90
2019-02-23T19:52:13.153Z,99.90
2019-02-23T19:54:40.817Z,99.90
2019-02-23T19:57:08.249Z,99.90
2019-02-23T19:59:35.810Z,99.90
2019-02-23T20:02:03.636Z,99.90
2019-02-23T20:04:31.515Z,99.90
2019-02-23T20:06:59.398Z,99.90
2019-02-23T20:09:27.381Z,99.90
2019-02-23T20:11:55.040Z,99.90
2019-02-23T20:14:22.890Z,99.90
2019-02-23T20:16:50.480Z,99.90
2019-02-23T20:19:19.697Z,99.90
2019-02-23T20:21:47.673Z,99.90
2019-02-23T20:24:15.544Z,99.90
2019-02-23T20:26:43.373Z,99.90
2019-02-23T20:29:11.649Z,99.90
2019-02-23T20:31:39.220Z,99.90
2019-02-23T20:34:06.767Z,99.90
2019-02-23T20:36:34.741Z,99.90
2019-02-23T20:39:03.054Z,99.90
2019-02-23T20:41:30.957Z,99.90
2019-02-23T20:43:59.079Z,99.90
2019-02-23T20:46:26.624Z,99.90
2019-02-23T20:48:53.815Z,99.90
2019-02-23T20:51:21.774Z,99.90
2019-02-23T20:53:49.736Z,99.90
2019-02-23T20:56:17.198Z,99.90
2019-02-23T20:58:44.324Z,99.90
2019-02-23T21:01:12.462Z,99.90
2019-02-23T21:03:40.464Z,99.90
2019-02-23T21:06:07.729Z,99.90
2019-02-23T21:08:35.918Z,99.90
2019-02-23T21:11:03.514Z,99.90
2019-02-23T21:13:31.224Z,99.90
2019-02-23T21:15:58.529Z,99.90
2019-02-23T21:18:26.130Z,99.90
2019-02-23T21:20:53.269Z,99.90
2019-02-23T21:23:21.376Z,99.90
2019-02-23T21:25:48.901Z,99.90
2019-02-23T21:28:16.264Z,99.90
2019-02-23T21:30:43.636Z,99.90
2019-02-23T21:33:11.213Z,99.90
2019-02-23T21:35:38.919Z,99.90
2019-02-23T21:38:06.561Z,99.90
2019-02-23T21:40:33.722Z,99.90
2019-02-23T21:43:01.255Z,99.90
2019-02-23T21:45:30.198Z,99.90
2019-02-23T21:47:57.814Z,99.90
2019-02-23T21:50:25.302Z,99.90
2019-02-23T21:52:52.623Z,99.90
2019-02-23T21:55:20.422Z,99.90
2019-02-23T21:57:47.619Z,99.90
2019-02-23T22:00:15.118Z,99.90
2019-02-23T22:02:42.841Z,99.90
2019-02-23T22:05:12.680Z,99.90
2019-02-23T22:07:40.345Z,99.90
2019-02-23T22:10:08.181Z,99.90
2019-02-23T22:12:35.845Z,99.90
2019-02-23T22:15:03.560Z,99.90
2019-02-23T22:17:30.984Z,99.90
2019-02-23T22:19:58.593Z,99.90
2019-02-23T22:22:26.922Z,99.90
2019-02-23T22:24:54.154Z,99.90
2019-02-23T22:27:31.160Z,99.90
2019-02-23T22:29:54.105Z,99.90
2019-02-23T22:32:21.345Z,99.90
2019-02-23T22:34:48.477Z,99.90
2019-02-23T22:37:15.984Z,99.90
2019-02-23T22:39:43.219Z,99.90
2019-02-23T22:42:10.514Z,99.90
2019-02-23T22:44:38.158Z,99.90
2019-02-23T22:47:05.817Z,99.90
2019-02-23T22:49:33.175Z,99.90
2019-02-23T22:52:01.430Z,99.90
2019-02-23T22:54:28.895Z,99.90
2019-02-23T22:56:56.062Z,99.90
2019-02-23T22:59:23.670Z,99.90
2019-02-23T23:01:51.446Z,99.90
2019-02-23T23:04:19.013Z,99.90
2019-02-23T23:06:46.631Z,99.90
2019-02-23T23:09:17.456Z,99.90
2019-02-23T23:11:45.230Z,99.90
2019-02-23T23:14:13.121Z,99.90
2019-02-23T23:16:40.904Z,99.90
2019-02-23T23:19:08.637Z,99.90
2019-02-23T23:21:36.160Z,99.90
2019-02-23T23:24:03.537Z,99.90
2019-02-23T23:26:31.167Z,99.90
2019-02-23T23:28:58.777Z,99.90
2019-02-23T23:31:26.626Z,99.90
2019-02-23T23:33:54.888Z,99.90
2019-02-23T23:36:22.503Z,99.90
2019-02-23T23:38:50.207Z,99.90
2019-02-23T23:41:18.525Z,99.90
2019-02-23T23:43:46.984Z,99.90
2019-02-23T23:46:14.642Z,99.90
2019-02-23T23:48:42.479Z,99.90
2019-02-23T23:51:09.755Z,99.90
2019-02-23T23:53:37.694Z,99.90
2019-02-23T23:56:04.991Z,99.90
2019-02-23T23:58:33.248Z,99.90
